Time;durP1;ratioP1;P1;durP2;ratioP2;P2;SDS_P1;SDS_P2;PMS_P1;PMS_P2;Temp;Humidity;BMP_temperature;BMP_pressure;BME280_temperature;BME280_humidity;BME280_pressure;Samples;Min_cycle;Max_cycle;Signal;HPM_P1;HPM_P2
2021/04/22 00:01:38;;;;;;;13.23;3.00;;;;;;;8.54;44.62;102323.22;4911839;28;123923;-73
2021/04/22 00:04:05;;;;;;;13.90;4.45;;;;;;;8.52;44.99;102322.38;4920268;28;123844;-73
2021/04/22 00:06:32;;;;;;;18.63;3.50;;;;;;;8.49;45.06;102327.69;4916003;28;114137;-72
2021/04/22 00:08:58;;;;;;;18.00;3.53;;;;;;;8.46;44.88;102319.81;4925215;28;114991;-72
2021/04/22 00:11:25;;;;;;;16.40;3.53;;;;;;;8.42;44.99;102323.38;4908111;28;123824;-72
2021/04/22 00:13:52;;;;;;;18.40;3.65;;;;;;;8.41;45.22;102329.53;4920305;28;123692;-72
2021/04/22 00:16:18;;;;;;;15.93;3.55;;;;;;;8.36;45.28;102322.53;4902398;28;115299;-72
2021/04/22 00:18:45;;;;;;;16.90;3.63;;;;;;;8.33;45.25;102327.84;4924494;28;115065;-72
2021/04/22 00:21:13;;;;;;;16.10;4.13;;;;;;;8.29;45.28;102331.41;4908979;28;122358;-72
2021/04/22 00:23:39;;;;;;;15.88;3.92;;;;;;;8.26;45.09;102341.13;4919149;28;123870;-72
2021/04/22 00:26:06;;;;;;;19.30;4.13;;;;;;;8.22;45.24;102329.72;4918287;28;114207;-72
2021/04/22 00:28:33;;;;;;;16.38;3.70;;;;;;;8.16;45.08;102329.81;4921392;28;114441;-72
2021/04/22 00:30:59;;;;;;;14.45;3.70;;;;;;;8.13;45.15;102335.09;4901125;28;123827;-73
2021/04/22 00:33:26;;;;;;;17.88;3.22;;;;;;;8.08;45.28;102332.53;4902803;28;123171;-73
2021/04/22 00:35:52;;;;;;;12.93;3.72;;;;;;;8.05;45.23;102336.97;4920684;28;114266;-72
2021/04/22 00:38:19;;;;;;;13.32;3.25;;;;;;;7.99;45.36;102333.50;4919275;28;114538;-72
2021/04/22 00:40:48;;;;;;;16.95;3.13;;;;;;;7.96;45.46;102344.06;4900941;28;122858;-72
2021/04/22 00:43:18;;;;;;;15.18;3.08;;;;;;;7.92;45.78;102339.72;4923370;28;124654;-72
2021/04/22 00:45:46;;;;;;;16.65;3.65;;;;;;;7.90;45.60;102332.72;4922493;28;113903;-72
2021/04/22 00:48:16;;;;;;;14.50;3.75;;;;;;;7.87;45.79;102344.16;4917208;28;114160;-72
2021/04/22 00:50:48;;;;;;;19.20;3.40;;;;;;;7.83;45.62;102337.16;4914384;28;123655;-72
2021/04/22 00:53:14;;;;;;;19.48;3.75;;;;;;;7.80;45.86;102331.94;4898134;28;123870;-72
2021/04/22 00:55:41;;;;;;;15.15;3.55;;;;;;;7.76;45.73;102340.75;4894116;28;113837;-72
2021/04/22 00:58:08;;;;;;;15.27;3.35;;;;;;;7.73;45.63;102340.78;4914830;28;114367;-72
2021/04/22 01:00:44;;;;;;;16.98;3.47;;;;;;;7.71;45.63;102347.84;4914003;28;123863;-72
2021/04/22 01:03:11;;;;;;;17.73;3.45;;;;;;;7.68;45.70;102347.84;4916220;28;123135;-72
2021/04/22 01:05:45;;;;;;;14.38;3.35;;;;;;;7.64;45.79;102341.72;4916590;28;116004;-72
2021/04/22 01:08:12;;;;;;;12.70;2.90;;;;;;;7.62;45.86;102347.91;4920210;28;114937;-72
2021/04/22 01:10:39;;;;;;;18.02;3.70;;;;;;;7.57;45.70;102350.56;4906543;28;124181;-72
2021/04/22 01:13:06;;;;;;;16.00;3.25;;;;;;;7.54;46.01;102351.50;4900893;28;123837;-72
2021/04/22 01:15:34;;;;;;;18.42;3.90;;;;;;;7.51;45.95;102354.13;4923763;28;114172;-72
2021/04/22 01:18:01;;;;;;;14.68;3.20;;;;;;;7.48;45.78;102359.47;4902790;28;114111;-72
2021/04/22 01:20:31;;;;;;;17.10;3.47;;;;;;;7.44;46.33;102360.38;4915243;28;123317;-72
2021/04/22 01:23:00;;;;;;;15.05;3.38;;;;;;;7.40;46.19;102363.88;4918226;28;124208;-75
2021/04/22 01:25:31;;;;;;;26.00;3.72;;;;;;;7.38;46.23;102370.94;4929910;28;114714;-73
2021/04/22 01:27:58;;;;;;;17.20;4.40;;;;;;;7.36;46.30;102372.72;4908748;28;112343;-73
2021/04/22 01:30:35;;;;;;;17.98;3.78;;;;;;;7.33;46.50;102370.13;4892244;28;123946;-74
2021/04/22 01:33:02;;;;;;;17.98;3.90;;;;;;;7.28;46.45;102364.00;4919288;28;122903;-73
2021/04/22 01:35:35;;;;;;;16.20;3.63;;;;;;;7.26;46.49;102363.13;4910077;28;112995;-73
2021/04/22 01:38:04;;;;;;;19.20;3.72;;;;;;;7.22;46.43;102363.13;4902637;28;113503;-73
2021/04/22 01:40:31;;;;;;;18.33;4.07;;;;;;;7.21;46.62;102369.31;4918831;28;124559;-72
2021/04/22 01:42:58;;;;;;;22.90;4.43;;;;;;;7.18;46.77;102366.69;4910766;28;122712;-72
2021/04/22 01:45:25;;;;;;;18.08;4.07;;;;;;;7.17;46.88;102378.09;4918696;28;114597;-73
2021/04/22 01:47:55;;;;;;;15.75;3.58;;;;;;;7.15;46.79;102379.88;4922071;28;116155;-73
2021/04/22 01:50:25;;;;;;;15.50;3.60;;;;;;;7.14;46.99;102377.22;4918911;28;123571;-73
2021/04/22 01:52:52;;;;;;;21.58;3.60;;;;;;;7.12;46.78;102374.63;4917007;28;123927;-73
2021/04/22 01:55:27;;;;;;;19.75;3.83;;;;;;;7.09;46.75;102377.28;4913398;28;115465;-73
2021/04/22 01:57:54;;;;;;;20.67;3.73;;;;;;;7.08;46.86;102375.50;4928543;28;114813;-72
2021/04/22 02:00:32;;;;;;;17.45;3.47;;;;;;;7.07;47.23;102386.94;4920062;28;124291;-73
2021/04/22 02:02:59;;;;;;;16.02;3.22;;;;;;;7.07;47.12;102375.53;4900795;28;123091;-73
2021/04/22 02:05:26;;;;;;;17.40;3.70;;;;;;;7.05;47.07;102378.19;4912948;28;112552;-72
2021/04/22 02:07:53;;;;;;;19.40;4.38;;;;;;;7.03;47.11;102379.97;4895879;28;113110;-73
2021/04/22 02:10:20;;;;;;;17.15;4.25;;;;;;;7.01;47.34;102384.34;4904022;28;123088;-73
2021/04/22 02:12:48;;;;;;;21.50;4.63;;;;;;;7.00;47.28;102390.50;4919291;28;123818;-73
2021/04/22 02:15:27;;;;;;;22.67;4.32;;;;;;;6.99;47.37;102378.22;4916956;28;114863;-72
2021/04/22 02:17:55;;;;;;;24.23;4.38;;;;;;;6.99;47.23;102380.84;4884919;28;112959;-73
2021/04/22 02:20:23;;;;;;;16.33;4.20;;;;;;;6.98;47.47;102387.00;4917773;28;124020;-72
2021/04/22 02:22:50;;;;;;;20.10;4.82;;;;;;;6.98;47.30;102393.13;4923325;28;123143;-73
2021/04/22 02:25:20;;;;;;;24.92;4.85;;;;;;;6.96;47.61;102388.75;4916578;28;114354;-72
2021/04/22 02:27:46;;;;;;;24.45;5.57;;;;;;;6.95;47.35;102387.91;4898871;28;112792;-73
2021/04/22 02:30:20;;;;;;;22.00;4.68;;;;;;;6.93;47.59;102383.50;4921163;28;123166;-73
2021/04/22 02:32:48;;;;;;;17.92;4.10;;;;;;;6.92;47.60;102387.03;4910984;28;123930;-73
2021/04/22 02:35:17;;;;;;;20.00;4.50;;;;;;;6.91;47.54;102390.53;4919791;28;114995;-73
2021/04/22 02:37:43;;;;;;;20.17;4.25;;;;;;;6.90;47.64;102394.06;4895329;28;113673;-73
2021/04/22 02:40:15;;;;;;;16.35;3.97;;;;;;;6.87;47.86;102388.81;4916312;28;123733;-73
2021/04/22 02:42:42;;;;;;;18.55;3.97;;;;;;;6.87;47.74;102383.53;4895207;28;122665;-73
2021/04/22 02:45:17;;;;;;;16.83;3.88;;;;;;;6.87;47.67;102383.53;4918950;28;115240;-72
2021/04/22 02:47:44;;;;;;;16.83;3.90;;;;;;;6.86;47.62;102387.94;4913081;28;115050;-73
2021/04/22 02:50:14;;;;;;;22.77;4.28;;;;;;;6.85;47.89;102382.69;4910780;28;122839;-73
2021/04/22 02:52:41;;;;;;;20.45;4.00;;;;;;;6.82;47.49;102384.44;4909937;28;123576;-73
2021/04/22 02:55:08;;;;;;;20.67;4.43;;;;;;;6.82;47.96;102392.34;4894313;28;114144;-73
2021/04/22 02:57:35;;;;;;;17.52;4.00;;;;;;;6.80;47.95;102394.09;4899883;28;113988;-72
2021/04/22 03:00:05;;;;;;;23.23;4.65;;;;;;;6.79;48.07;102392.34;4901629;28;123178;-72
2021/04/22 03:02:32;;;;;;;16.80;4.00;;;;;;;6.78;47.80;102393.25;4898761;28;123231;-72
2021/04/22 03:04:59;;;;;;;19.73;4.35;;;;;;;6.78;48.11;102401.16;4901946;28;113358;-72
2021/04/22 03:07:26;;;;;;;18.23;4.18;;;;;;;6.76;48.12;102402.00;4897795;28;113864;-73
2021/04/22 03:09:53;;;;;;;18.73;4.00;;;;;;;6.76;47.80;102396.75;4894285;28;125574;-72
2021/04/22 03:12:19;;;;;;;18.95;4.18;;;;;;;6.73;48.08;102397.66;4928323;28;123886;-73
2021/04/22 03:14:46;;;;;;;18.52;4.15;;;;;;;6.72;48.10;102401.16;4900693;28;114755;-73
2021/04/22 03:17:12;;;;;;;21.70;4.63;;;;;;;6.71;48.23;102409.94;4900851;28;112543;-73
2021/04/22 03:19:39;;;;;;;15.30;3.63;;;;;;;6.70;47.95;102413.44;4918123;28;124017;-72
2021/04/22 03:22:06;;;;;;;16.98;4.15;;;;;;;6.67;48.04;102413.47;4916558;28;123643;-73
2021/04/22 03:24:33;;;;;;;20.73;4.70;;;;;;;6.66;48.13;102401.19;4910675;28;113643;-73
2021/04/22 03:26:59;;;;;;;20.58;4.53;;;;;;;6.65;48.29;102409.97;4917170;28;113827;-73
2021/04/22 03:29:26;;;;;;;16.65;4.20;;;;;;;6.63;48.19;102401.22;4920372;28;123190;-72
2021/04/22 03:31:53;;;;;;;15.00;3.85;;;;;;;6.63;48.46;102409.09;4912773;23;121782;-70
2021/04/22 03:34:19;;;;;;;20.92;4.38;;;;;;;6.63;48.32;102411.75;4906379;28;115480;-71
2021/04/22 03:36:46;;;;;;;19.25;4.50;;;;;;;6.62;48.39;102409.97;4905069;28;115556;-71
2021/04/22 03:39:13;;;;;;;17.05;4.40;;;;;;;6.60;48.20;102406.47;4905797;28;124745;-71
2021/04/22 03:41:39;;;;;;;18.42;4.03;;;;;;;6.60;48.54;102411.72;4909110;28;123748;-71
2021/04/22 03:44:06;;;;;;;20.52;4.50;;;;;;;6.59;48.40;102409.97;4912124;28;114475;-71
2021/04/22 03:46:33;;;;;;;21.17;4.35;;;;;;;6.58;48.15;102408.25;4909073;28;114572;-71
2021/04/22 03:49:00;;;;;;;16.67;3.80;;;;;;;6.56;48.54;102410.00;4906099;28;124407;-71
2021/04/22 03:51:26;;;;;;;16.15;4.03;;;;;;;6.55;48.67;102413.50;4911060;28;124100;-71
2021/04/22 03:53:53;;;;;;;19.85;4.40;;;;;;;6.52;48.59;102414.41;4910304;28;113732;-71
2021/04/22 03:56:20;;;;;;;20.10;4.47;;;;;;;6.53;48.39;102412.63;4910222;28;113195;-71
2021/04/22 03:58:46;;;;;;;18.70;4.25;;;;;;;6.50;48.43;102410.00;4908585;28;123409;-71
2021/04/22 04:01:14;;;;;;;17.98;4.50;;;;;;;6.49;48.75;102413.53;4912200;28;123799;-71
2021/04/22 04:03:40;;;;;;;19.65;4.53;;;;;;;6.47;48.57;102415.28;4914567;28;113901;-71
2021/04/22 04:06:07;;;;;;;17.48;4.25;;;;;;;6.46;48.92;102413.53;4913855;28;114637;-71
2021/04/22 04:08:34;;;;;;;19.30;4.70;;;;;;;6.46;48.70;102408.25;4907909;28;123035;-70
2021/04/22 04:11:01;;;;;;;19.92;4.13;;;;;;;6.43;48.80;102417.91;4915269;28;124177;-71
2021/04/22 04:13:27;;;;;;;20.50;4.75;;;;;;;6.42;48.68;102418.81;4909612;28;114410;-71
2021/04/22 04:15:54;;;;;;;20.73;4.82;;;;;;;6.42;48.77;102424.06;4909930;28;113800;-71
2021/04/22 04:18:21;;;;;;;24.33;4.20;;;;;;;6.41;48.93;102422.31;4912187;28;124942;-71
2021/04/22 04:20:48;;;;;;;21.80;4.38;;;;;;;6.40;48.81;102415.31;4891654;28;124437;-71
2021/04/22 04:23:15;;;;;;;25.65;4.78;;;;;;;6.40;49.06;102420.56;4905429;28;115577;-71
2021/04/22 04:25:42;;;;;;;16.38;4.60;;;;;;;6.39;48.79;102424.06;4908029;28;114717;-70
2021/04/22 04:28:09;;;;;;;19.13;4.60;;;;;;;6.36;48.75;102429.31;4908027;28;123966;-70
2021/04/22 04:30:37;;;;;;;20.08;4.50;;;;;;;6.35;49.20;102422.34;4905910;28;124094;-70
2021/04/22 04:33:04;;;;;;;19.95;4.80;;;;;;;6.34;49.16;102423.19;4910261;28;113866;-70
2021/04/22 04:35:31;;;;;;;16.58;4.57;;;;;;;6.34;49.00;102425.81;4908892;28;114012;-70
2021/04/22 04:37:58;;;;;;;19.23;4.80;;;;;;;6.34;49.08;102425.81;4901981;28;124164;-71
2021/04/22 04:40:25;;;;;;;24.95;5.40;;;;;;;6.35;49.26;102432.84;4905469;28;124780;-70
2021/04/22 04:42:52;;;;;;;20.60;5.25;;;;;;;6.35;49.23;102438.13;4916409;28;113360;-70
2021/04/22 04:45:19;;;;;;;20.38;5.43;;;;;;;6.36;49.47;102439.84;4908838;28;114127;-71
2021/04/22 04:47:48;;;;;;;21.70;5.13;;;;;;;6.38;49.35;102432.81;4905861;28;124115;-71
2021/04/22 04:50:17;;;;;;;22.60;4.88;;;;;;;6.40;49.48;102431.09;4903946;28;123017;-71
2021/04/22 04:52:47;;;;;;;19.08;5.00;;;;;;;6.41;49.57;102446.00;4904076;28;114226;-71
2021/04/22 04:55:15;;;;;;;19.95;5.30;;;;;;;6.45;49.57;102440.75;4905770;28;113839;-71
2021/04/22 04:57:43;;;;;;;23.75;5.57;;;;;;;6.47;49.69;102442.47;4907429;28;124298;-71
2021/04/22 05:00:12;;;;;;;18.25;5.50;;;;;;;6.51;49.80;102438.94;4904643;28;123913;-71
2021/04/22 05:02:39;;;;;;;20.17;4.80;;;;;;;6.54;49.90;102443.34;4911594;28;114363;-71
2021/04/22 05:05:09;;;;;;;24.73;5.20;;;;;;;6.58;49.78;102452.97;4909734;28;114172;-70
2021/04/22 05:07:37;;;;;;;23.75;5.60;;;;;;;6.61;49.73;102450.31;4909101;28;123792;-70
2021/04/22 05:10:07;;;;;;;17.25;4.97;;;;;;;6.65;50.17;102449.47;4909119;28;124320;-70
2021/04/22 05:12:34;;;;;;;20.88;5.13;;;;;;;6.70;49.93;102460.84;4904906;28;115297;-71
2021/04/22 05:15:03;;;;;;;19.13;5.75;;;;;;;6.74;50.01;102452.06;4908738;28;115536;-71
2021/04/22 05:17:29;;;;;;;22.10;5.07;;;;;;;6.79;50.30;102455.53;4910354;28;123167;-71
2021/04/22 05:19:56;;;;;;;24.30;5.25;;;;;;;6.85;50.27;102459.03;4909487;28;123455;-71
2021/04/22 05:22:23;;;;;;;27.80;5.63;;;;;;;6.92;50.29;102460.78;4906212;28;114154;-71
2021/04/22 05:24:50;;;;;;;19.10;5.68;;;;;;;6.98;50.21;102458.97;4908193;28;113637;-71
2021/04/22 05:27:17;;;;;;;20.23;6.13;;;;;;;7.05;50.40;102456.34;4891722;28;124412;-71
2021/04/22 05:29:44;;;;;;;20.35;5.82;;;;;;;7.11;50.36;102462.44;4909171;28;124394;-71
2021/04/22 05:32:11;;;;;;;25.58;6.30;;;;;;;7.18;50.34;102458.91;4908161;28;114315;-70
2021/04/22 05:34:38;;;;;;;25.88;6.53;;;;;;;7.22;50.21;102465.91;4905467;28;114044;-71
2021/04/22 05:37:04;;;;;;;25.52;6.45;;;;;;;7.28;50.37;102469.41;4905890;28;123989;-72
2021/04/22 05:39:31;;;;;;;23.23;6.28;;;;;;;7.36;50.35;102472.88;4908869;28;124140;-70
2021/04/22 05:41:58;;;;;;;24.67;6.07;;;;;;;7.42;50.21;102472.81;4906101;28;114660;-70
2021/04/22 05:44:26;;;;;;;16.45;5.80;;;;;;;7.46;50.09;102471.94;4904501;28;114301;-71
2021/04/22 05:46:52;;;;;;;24.05;6.22;;;;;;;7.50;50.20;102481.59;4905506;28;124334;-72
2021/04/22 05:49:19;;;;;;;19.15;5.60;;;;;;;7.54;50.30;102488.59;4909617;28;124143;-72
2021/04/22 05:51:46;;;;;;;17.13;6.03;;;;;;;7.56;49.98;102486.81;4903149;28;114157;-73
2021/04/22 05:54:13;;;;;;;24.77;5.60;;;;;;;7.60;50.25;102485.91;4899917;28;113889;-72
2021/04/22 05:56:41;;;;;;;18.60;6.05;;;;;;;7.65;50.01;102495.53;4913279;28;124287;-71
2021/04/22 05:59:08;;;;;;;21.55;6.25;;;;;;;7.69;50.23;102497.31;4900636;28;123768;-73
2021/04/22 06:01:34;;;;;;;17.75;6.03;;;;;;;7.73;50.24;102501.66;4897703;28;115050;-73
2021/04/22 06:04:01;;;;;;;18.80;5.50;;;;;;;7.78;50.36;102511.28;4897881;28;116251;-72
2021/04/22 06:06:28;;;;;;;22.85;6.45;;;;;;;7.84;49.92;102520.94;4897174;28;124164;-73
2021/04/22 06:08:54;;;;;;;23.35;6.22;;;;;;;7.89;50.14;102520.88;4897444;28;124273;-72
2021/04/22 06:11:21;;;;;;;20.98;6.72;;;;;;;7.92;50.10;102513.81;4895655;28;114652;-71
2021/04/22 06:13:47;;;;;;;23.83;6.50;;;;;;;7.97;50.48;102509.41;4905167;28;114570;-72
2021/04/22 06:16:14;;;;;;;21.73;7.25;;;;;;;8.05;50.56;102516.41;4905481;28;124095;-72
2021/04/22 06:18:41;;;;;;;21.05;6.07;;;;;;;8.12;50.51;102518.97;4901457;28;124504;-71
2021/04/22 06:21:11;;;;;;;21.75;5.97;;;;;;;8.20;50.28;102516.28;4889908;28;113628;-73
2021/04/22 06:23:38;;;;;;;21.75;5.90;;;;;;;8.28;50.36;102514.44;4906980;28;114349;-73
2021/04/22 06:26:05;;;;;;;23.10;6.03;;;;;;;8.35;50.25;102510.00;4894473;28;123366;-71
2021/04/22 06:28:31;;;;;;;18.75;5.13;;;;;;;8.44;50.30;102509.03;4906813;28;123124;-72
2021/04/22 06:30:58;;;;;;;20.10;5.68;;;;;;;8.53;49.80;102519.53;4904225;28;114462;-72
2021/04/22 06:33:25;;;;;;;22.90;5.60;;;;;;;8.64;49.88;102522.06;4906273;28;114113;-71
2021/04/22 06:35:51;;;;;;;17.90;5.03;;;;;;;8.75;49.96;102523.69;4901445;28;123768;-72
2021/04/22 06:38:18;;;;;;;22.60;6.10;;;;;;;8.89;50.29;102522.69;4903684;28;124736;-71
2021/04/22 06:40:45;;;;;;;18.33;5.65;;;;;;;9.04;50.32;102527.81;4907323;28;114293;-72
2021/04/22 06:43:13;;;;;;;24.50;5.90;;;;;;;9.21;50.11;102532.00;4902287;28;114401;-71
2021/04/22 06:45:42;;;;;;;20.20;5.85;;;;;;;9.37;50.33;102536.22;4906630;28;123735;-74
2021/04/22 06:48:11;;;;;;;22.25;5.40;;;;;;;9.54;49.64;102533.34;4898613;28;124115;-72
2021/04/22 06:50:38;;;;;;;20.40;5.30;;;;;;;9.70;49.58;102539.28;4896101;28;115577;-72
2021/04/22 06:53:06;;;;;;;23.27;5.88;;;;;;;9.83;49.66;102540.88;4899993;28;115665;-71
2021/04/22 06:55:33;;;;;;;19.98;5.05;;;;;;;9.98;49.39;102544.19;4898711;28;124354;-71
2021/04/22 06:58:02;;;;;;;18.90;5.00;;;;;;;10.14;49.57;102543.06;4900751;28;123265;-71
2021/04/22 07:00:32;;;;;;;17.88;4.45;;;;;;;10.32;49.18;102550.75;4899794;28;114354;-73
2021/04/22 07:03:00;;;;;;;17.15;3.85;;;;;;;10.51;48.72;102539.84;4903410;28;114192;-74
2021/04/22 07:05:28;;;;;;;17.52;3.90;;;;;;;10.66;48.25;102550.16;4900254;28;124813;-73
2021/04/22 07:07:55;;;;;;;18.90;4.22;;;;;;;10.83;48.15;102546.31;4897822;28;124406;-72
2021/04/22 07:10:22;;;;;;;13.88;4.30;;;;;;;10.99;47.74;102549.56;4900114;28;113511;-73
2021/04/22 07:12:49;;;;;;;13.13;3.83;;;;;;;11.15;47.53;102543.06;4903931;28;114778;-73
2021/04/22 07:15:16;;;;;;;16.15;3.80;;;;;;;11.32;47.11;102549.78;4893994;28;124276;-72
2021/04/22 07:17:50;;;;;;;11.27;3.78;;;;;;;11.44;46.99;102555.72;4906400;28;124319;-72
2021/04/22 07:20:20;;;;;;;18.42;3.78;;;;;;;11.58;46.57;102562.50;4910618;28;114457;-72
2021/04/22 07:22:53;;;;;;;14.80;3.85;;;;;;;11.73;46.51;102556.84;4906690;28;114022;-73
2021/04/22 07:25:21;;;;;;;14.88;3.78;;;;;;;11.87;46.33;102557.41;4900601;28;123897;-74
2021/04/22 07:27:47;;;;;;;16.23;4.07;;;;;;;12.00;45.77;102559.84;4903320;28;124011;-74
2021/04/22 07:30:15;;;;;;;18.58;3.72;;;;;;;12.13;45.16;102566.59;4908808;28;114317;-73
2021/04/22 07:32:42;;;;;;;12.55;3.80;;;;;;;12.24;45.05;102559.25;4900389;28;113883;-74
2021/04/22 07:35:09;;;;;;;12.82;3.58;;;;;;;12.32;44.42;102563.47;4914477;28;123637;-74
2021/04/22 07:37:37;;;;;;;17.10;3.92;;;;;;;12.42;44.75;102563.22;4904700;28;124522;-74
2021/04/22 07:40:08;;;;;;;17.05;3.55;;;;;;;12.57;44.31;102561.97;4901752;28;115298;-78
2021/04/22 07:42:35;;;;;;;16.17;3.47;;;;;;;12.69;44.38;102555.44;4900340;28;115063;-76
2021/04/22 07:45:05;;;;;;;18.55;3.75;;;;;;;12.78;43.30;102564.97;4903343;28;124544;-74
2021/04/22 07:47:32;;;;;;;12.95;3.50;;;;;;;12.79;43.43;102570.25;4901497;28;123811;-76
2021/04/22 07:50:00;;;;;;;11.38;3.10;;;;;;;12.77;43.27;102579.16;4904479;28;113477;-75
2021/04/22 07:52:27;;;;;;;12.88;3.50;;;;;;;12.77;43.34;102573.84;4904305;28;114317;-78
2021/04/22 07:54:54;;;;;;;14.20;3.53;;;;;;;12.78;43.23;102575.59;4896611;28;124914;-75
2021/04/22 07:57:21;;;;;;;15.98;3.10;;;;;;;12.78;43.01;102575.59;4912255;23;124672;-74
2021/04/22 07:59:47;;;;;;;12.25;3.03;;;;;;;12.72;41.75;102570.47;4907313;28;114222;-74
2021/04/22 08:02:34;;;;;;;11.02;3.00;;;;;;;12.70;42.42;102566.97;4901175;28;113224;-73
2021/04/22 08:05:03;;;;;;;15.80;3.10;;;;;;;12.77;43.26;102574.75;4904766;28;124817;-73
2021/04/22 08:07:29;;;;;;;11.68;2.70;;;;;;;12.92;43.13;102573.47;4907907;28;123842;-74
2021/04/22 08:09:56;;;;;;;11.63;2.70;;;;;;;13.03;42.01;102576.69;4908101;28;114549;-71
2021/04/22 08:12:23;;;;;;;9.75;2.85;;;;;;;13.14;41.53;102575.53;4908920;28;113905;-74
2021/04/22 08:14:52;;;;;;;10.23;2.80;;;;;;;13.23;41.09;102567.28;4886187;28;124425;-71
2021/04/22 08:17:19;;;;;;;12.73;2.58;;;;;;;13.30;41.10;102574.22;4881556;28;125127;-73
2021/04/22 08:19:45;;;;;;;13.45;2.67;;;;;;;13.37;41.52;102575.78;4917399;28;114087;-73
2021/04/22 08:22:12;;;;;;;13.10;3.05;;;;;;;13.42;40.99;102573.84;4893002;28;113755;-73
2021/04/22 08:24:38;;;;;;;10.52;2.95;;;;;;;13.46;41.30;102577.28;4911689;28;123652;-73
2021/04/22 08:27:05;;;;;;;13.70;3.45;;;;;;;13.51;41.28;102579.81;4916251;28;124365;-72
2021/04/22 08:29:32;;;;;;;14.27;2.80;;;;;;;13.54;41.05;102579.72;4929784;28;114872;-72
2021/04/22 08:31:58;;;;;;;11.40;3.00;;;;;;;13.54;40.84;102582.38;4901630;28;114654;-73
2021/04/22 08:34:26;;;;;;;9.73;2.78;;;;;;;13.50;40.93;102586.06;4899810;28;123346;-73
2021/04/22 08:36:53;;;;;;;12.95;3.17;;;;;;;13.43;40.95;102580.91;4898106;28;123050;-73
2021/04/22 08:39:20;;;;;;;11.90;3.60;;;;;;;13.44;40.96;102577.31;4921128;28;114639;-73
2021/04/22 08:41:47;;;;;;;16.20;3.00;;;;;;;13.47;41.37;102580.81;4917979;28;113129;-72
2021/04/22 08:44:13;;;;;;;12.45;3.00;;;;;;;13.47;40.50;102581.72;4921320;28;124971;-73
2021/04/22 08:46:40;;;;;;;11.40;3.05;;;;;;;13.54;40.91;102593.03;4917270;28;124532;-73
2021/04/22 08:49:09;;;;;;;14.82;3.47;;;;;;;13.59;40.76;102580.47;4916520;28;112267;-73
2021/04/22 08:51:36;;;;;;;13.93;2.95;;;;;;;13.60;40.31;102582.22;4922238;28;113712;-72
2021/04/22 08:54:04;;;;;;;12.18;3.28;;;;;;;13.57;40.12;102588.50;4904571;28;123658;-73
2021/04/22 08:56:34;;;;;;;12.63;2.65;;;;;;;13.60;40.52;102588.41;4903561;28;123251;-73
2021/04/22 08:59:02;;;;;;;13.40;3.40;;;;;;;13.69;40.68;102592.56;4922274;28;113408;-73
2021/04/22 09:01:28;;;;;;;14.43;2.90;;;;;;;13.80;40.78;102586.94;4915794;28;113828;-73
2021/04/22 09:03:55;;;;;;;8.48;2.88;;;;;;;13.82;40.12;102585.97;4919792;28;124103;-74
2021/04/22 09:06:23;;;;;;;12.40;2.95;;;;;;;13.77;40.25;102587.91;4890922;28;123743;-73
2021/04/22 09:08:51;;;;;;;13.65;2.75;;;;;;;13.78;40.14;102586.97;4879896;28;113350;-73
2021/04/22 09:11:22;;;;;;;12.80;3.08;;;;;;;13.86;39.23;102588.53;4930535;28;113760;-73
2021/04/22 09:13:48;;;;;;;11.35;2.97;;;;;;;13.93;39.67;102587.41;4908976;28;123545;-73
2021/04/22 09:16:19;;;;;;;13.15;2.85;;;;;;;14.04;39.65;102582.63;4912909;28;123753;-74
2021/04/22 09:18:55;;;;;;;11.25;3.30;;;;;;;14.12;38.73;102588.56;4898709;28;115499;-73
2021/04/22 09:21:25;;;;;;;14.05;3.15;;;;;;;14.16;38.67;102576.91;4909367;28;115188;-73
2021/04/22 09:24:03;;;;;;;12.20;2.50;;;;;;;14.19;38.49;102591.94;4913703;28;125739;-73
2021/04/22 09:26:39;;;;;;;16.63;3.10;;;;;;;14.22;38.21;102597.13;4918250;28;123931;-73
2021/04/22 09:29:08;;;;;;;13.10;3.38;;;;;;;14.25;38.05;102580.19;4917883;28;115467;-73
2021/04/22 09:31:35;;;;;;;10.88;4.45;;;;;;;14.30;37.92;102583.59;4936377;23;114685;-74
2021/04/22 09:34:10;;;;;;;10.13;2.75;;;;;;;14.31;37.40;102588.00;4927193;28;124483;-73
2021/04/22 09:36:51;;;;;;;8.88;3.20;;;;;;;14.37;37.27;102590.44;4940682;28;124603;-73
2021/04/22 09:39:22;;;;;;;10.60;3.38;;;;;;;14.44;37.73;102581.31;4934127;28;114011;-74
2021/04/22 09:41:50;;;;;;;13.40;3.08;;;;;;;14.55;38.13;102584.50;4944710;28;114508;-73
2021/04/22 09:44:18;;;;;;;9.63;2.90;;;;;;;14.72;38.01;102583.97;4919226;28;124954;-74
2021/04/22 09:46:48;;;;;;;10.55;3.20;;;;;;;14.88;37.36;102586.97;4944502;28;123967;-74
2021/04/22 09:49:20;;;;;;;15.35;3.72;;;;;;;14.99;38.32;102590.13;4915874;28;113157;-74
2021/04/22 09:51:48;;;;;;;12.68;3.50;;;;;;;15.12;38.61;102585.22;4912664;28;112957;-74
2021/04/22 09:54:20;;;;;;;15.05;3.67;;;;;;;15.20;38.19;102592.97;4926069;28;124690;-74
2021/04/22 09:56:49;;;;;;;14.23;3.15;;;;;;;15.22;38.00;102599.13;4930159;28;123938;-73
2021/04/22 09:59:21;;;;;;;12.60;3.38;;;;;;;15.17;37.98;102593.06;4915017;28;114571;-73
2021/04/22 10:01:58;;;;;;;10.45;3.45;;;;;;;15.07;37.23;102597.88;4913601;28;113393;-74
2021/04/22 10:04:37;;;;;;;19.67;3.83;;;;;;;15.03;37.26;102590.00;4915413;28;123180;-74
2021/04/22 10:07:18;;;;;;;15.88;4.05;;;;;;;15.03;37.61;102588.25;4917197;28;124042;-73
2021/04/22 10:09:45;;;;;;;13.27;3.53;;;;;;;15.09;37.73;102584.47;4928620;28;115701;-73
2021/04/22 10:12:28;;;;;;;12.88;4.07;;;;;;;15.14;37.99;102582.50;4927100;28;115311;-73
2021/04/22 10:14:56;;;;;;;13.07;3.60;;;;;;;15.24;38.00;102583.91;4938262;28;124310;-73
2021/04/22 10:17:25;;;;;;;11.77;3.95;;;;;;;15.37;37.14;102573.66;4945779;28;124178;-74
2021/04/22 10:20:10;;;;;;;11.18;3.35;;;;;;;15.44;36.73;102574.28;4922725;28;114519;-74
2021/04/22 10:22:39;;;;;;;12.30;3.83;;;;;;;15.49;36.57;102578.53;4906953;28;113137;-73
2021/04/22 10:25:09;;;;;;;10.15;3.70;;;;;;;15.47;36.14;102584.84;4920101;28;124093;-73
2021/04/22 10:27:36;;;;;;;10.02;3.33;;;;;;;15.44;35.65;102574.28;4940158;28;124049;-73
2021/04/22 10:30:06;;;;;;;10.05;3.50;;;;;;;15.42;36.43;102581.47;4924865;28;113305;-74
2021/04/22 10:32:33;;;;;;;10.13;3.30;;;;;;;15.47;36.78;102571.50;4940394;28;113842;-74
2021/04/22 10:35:01;;;;;;;12.32;3.90;;;;;;;15.54;36.46;102570.34;4928559;28;124231;-73
2021/04/22 10:37:30;;;;;;;15.77;4.30;;;;;;;15.62;35.70;102576.25;4932127;28;124595;-73
2021/04/22 10:39:58;;;;;;;12.10;3.95;;;;;;;15.65;35.28;102573.47;4932757;28;114117;-73
2021/04/22 10:42:25;;;;;;;9.13;3.72;;;;;;;15.66;36.22;102569.84;4932900;28;113882;-74
2021/04/22 10:44:52;;;;;;;11.73;4.15;;;;;;;15.71;36.38;102572.38;4932961;28;124348;-73
2021/04/22 10:47:21;;;;;;;11.32;3.88;;;;;;;15.73;35.95;102566.06;4930777;28;123657;-73
2021/04/22 10:49:49;;;;;;;14.25;4.20;;;;;;;15.74;36.53;102559.75;4926668;28;114129;-74
2021/04/22 10:52:17;;;;;;;9.70;3.33;;;;;;;15.78;36.47;102557.84;4899154;28;113572;-73
2021/04/22 10:54:46;;;;;;;13.85;3.88;;;;;;;15.87;36.22;102553.94;4912063;28;123669;-73
2021/04/22 10:57:16;;;;;;;10.38;4.10;;;;;;;15.96;36.29;102550.91;4887318;28;124007;-73
2021/04/22 10:59:45;;;;;;;11.98;3.88;;;;;;;16.03;35.46;102552.41;4910655;28;114214;-72
2021/04/22 11:02:24;;;;;;;9.18;3.47;;;;;;;16.03;35.53;102547.06;4915738;28;115011;-73
2021/04/22 11:04:51;;;;;;;10.93;3.60;;;;;;;16.06;35.03;102562.09;4921108;28;123828;-72
2021/04/22 11:07:22;;;;;;;12.73;4.43;;;;;;;16.03;34.16;102557.75;4894995;28;122991;-73
2021/04/22 11:10:00;;;;;;;9.57;3.53;;;;;;;16.00;34.45;102552.53;4911595;28;115220;-72
2021/04/22 11:12:30;;;;;;;11.88;3.85;;;;;;;16.00;34.46;102552.53;4925444;28;114242;-73
2021/04/22 11:14:58;;;;;;;13.90;3.85;;;;;;;16.05;35.25;102561.22;4921299;28;123912;-73
2021/04/22 11:17:39;;;;;;;11.07;3.88;;;;;;;16.12;35.46;102552.03;4913893;28;124316;-72
2021/04/22 11:20:18;;;;;;;14.30;3.97;;;;;;;16.19;35.55;102551.78;4907250;28;114973;-72